createdAt,value
2023-01-17T00:00:34.972Z,-0.56
2023-01-17T00:03:01.592Z,-0.58
2023-01-17T00:05:46.633Z,-0.57
2023-01-17T00:08:31.794Z,-0.58
2023-01-17T00:10:58.824Z,-0.52
2023-01-17T00:13:25.361Z,-0.57
2023-01-17T00:15:52.223Z,-0.64
2023-01-17T00:18:18.920Z,-0.63
2023-01-17T00:21:04.078Z,-0.60
2023-01-17T00:23:48.910Z,-0.64
2023-01-17T00:26:17.117Z,-0.61
2023-01-17T00:28:44.016Z,-0.59
2023-01-17T00:31:11.604Z,-0.62
2023-01-17T00:33:38.151Z,-0.61
2023-01-17T00:36:05.043Z,-0.62
2023-01-17T00:38:32.551Z,-0.64
2023-01-17T00:41:03.271Z,-0.65
2023-01-17T00:43:48.738Z,-0.64
2023-01-17T00:46:34.004Z,-0.63
2023-01-17T00:49:19.153Z,-0.62
2023-01-17T00:52:04.022Z,-0.54
2023-01-17T00:54:49.080Z,-0.57
2023-01-17T00:57:33.970Z,-0.59
2023-01-17T01:00:19.118Z,-0.60
2023-01-17T01:03:04.214Z,-0.59
2023-01-17T01:05:49.175Z,-0.58
2023-01-17T01:08:42.585Z,-0.55
2023-01-17T01:11:29.155Z,-0.54
2023-01-17T01:14:14.557Z,-0.51
2023-01-17T01:16:59.883Z,-0.47
2023-01-17T01:19:45.061Z,-0.48
2023-01-17T01:22:29.974Z,-0.54
2023-01-17T01:25:15.063Z,-0.53
2023-01-17T01:28:00.027Z,-0.47
2023-01-17T01:30:45.178Z,-0.46
2023-01-17T01:33:21.460Z,-0.46
2023-01-17T01:35:51.660Z,-0.48
2023-01-17T01:38:19.251Z,-0.49
2023-01-17T01:40:47.229Z,-0.47
2023-01-17T01:43:15.129Z,-0.48
2023-01-17T01:45:44.734Z,-0.44
2023-01-17T01:48:23.115Z,-0.47
2023-01-17T01:50:50.779Z,-0.42
2023-01-17T01:53:19.973Z,-0.43
2023-01-17T01:55:49.247Z,-0.42
2023-01-17T01:58:20.877Z,-0.43
2023-01-17T02:00:47.522Z,-0.43
2023-01-17T02:03:16.453Z,-0.42
2023-01-17T02:05:43.813Z,-0.38
2023-01-17T02:08:14.289Z,-0.34
2023-01-17T02:10:41.502Z,-0.39
2023-01-17T02:13:09.380Z,-0.41
2023-01-17T02:15:41.895Z,-0.38
2023-01-17T02:18:26.914Z,-0.40
2023-01-17T02:21:02.515Z,-0.40
2023-01-17T02:23:47.916Z,-0.43
2023-01-17T02:26:23.219Z,-0.39
2023-01-17T02:28:49.727Z,-0.36
2023-01-17T02:31:20.736Z,-0.37
2023-01-17T02:34:10.104Z,-0.38
2023-01-17T02:36:40.074Z,-0.34
2023-01-17T02:39:13.017Z,-0.32
2023-01-17T02:41:41.591Z,-0.33
2023-01-17T02:44:08.885Z,-0.36
2023-01-17T02:46:55.451Z,-0.37
2023-01-17T02:49:24.918Z,-0.45
2023-01-17T02:51:51.406Z,-0.51
2023-01-17T02:54:29.947Z,-0.54
2023-01-17T02:56:59.447Z,-0.57
2023-01-17T02:59:28.711Z,-0.53
2023-01-17T03:02:17.149Z,-0.51
2023-01-17T03:04:48.380Z,-0.48
2023-01-17T03:07:17.678Z,-0.40
2023-01-17T03:09:45.956Z,-0.40
2023-01-17T03:12:13.330Z,-0.40
2023-01-17T03:14:39.872Z,-0.42
2023-01-17T03:17:06.687Z,-0.40
2023-01-17T03:19:33.745Z,-0.42
2023-01-17T03:22:00.349Z,-0.41
2023-01-17T03:24:26.880Z,-0.51
2023-01-17T03:26:53.492Z,-0.57
2023-01-17T03:29:20.425Z,-0.55
2023-01-17T03:31:47.058Z,-0.52
2023-01-17T03:34:13.563Z,-0.56
2023-01-17T03:36:40.051Z,-0.58
2023-01-17T03:39:06.684Z,-0.55
2023-01-17T03:41:33.339Z,-0.47
2023-01-17T03:44:00.999Z,-0.42
2023-01-17T03:46:28.796Z,-0.43
2023-01-17T03:48:55.431Z,-0.27
2023-01-17T03:51:22.288Z,-0.39
2023-01-17T03:53:50.062Z,-0.44
2023-01-17T03:56:16.686Z,-0.42
2023-01-17T03:58:43.286Z,-0.45
2023-01-17T04:01:09.885Z,-0.50
2023-01-17T04:03:36.484Z,-0.55
2023-01-17T04:06:02.996Z,-0.54
2023-01-17T04:08:30.635Z,-0.54
2023-01-17T04:10:57.208Z,-0.48
2023-01-17T04:13:23.732Z,-0.51
2023-01-17T04:15:51.234Z,-0.54
2023-01-17T04:18:18.466Z,-0.53
2023-01-17T04:20:45.077Z,-0.55
2023-01-17T04:23:11.609Z,-0.54
2023-01-17T04:25:38.103Z,-0.50
2023-01-17T04:28:04.964Z,-0.53
2023-01-17T04:30:32.330Z,-0.53
2023-01-17T04:32:59.252Z,-0.55
2023-01-17T04:35:26.012Z,-0.55
2023-01-17T04:37:53.042Z,-0.58
2023-01-17T04:40:19.601Z,-0.56
2023-01-17T04:42:46.653Z,-0.53
2023-01-17T04:45:13.522Z,-0.51
2023-01-17T04:47:40.165Z,-0.56
2023-01-17T04:50:07.416Z,-0.58
2023-01-17T04:52:33.902Z,-0.61
2023-01-17T04:55:00.473Z,-0.62
2023-01-17T04:57:27.218Z,-0.63
2023-01-17T04:59:53.758Z,-0.65
2023-01-17T05:02:20.494Z,-0.74
2023-01-17T05:04:47.092Z,-0.81
2023-01-17T05:07:13.614Z,-0.84
2023-01-17T05:09:40.150Z,-0.91
2023-01-17T05:12:06.684Z,-0.95
2023-01-17T05:14:34.407Z,-0.95
2023-01-17T05:17:03.166Z,-0.95
2023-01-17T05:19:29.970Z,-0.96
2023-01-17T05:22:04.024Z,-0.99
2023-01-17T05:24:31.277Z,-1.02
2023-01-17T05:27:03.181Z,-0.99
2023-01-17T05:29:30.520Z,-1.01
2023-01-17T05:31:57.118Z,-1.03
2023-01-17T05:34:23.843Z,-1.07
2023-01-17T05:36:50.413Z,-1.07
2023-01-17T05:39:16.983Z,-1.05
2023-01-17T05:41:43.540Z,-1.03
2023-01-17T05:44:10.101Z,-0.99
2023-01-17T05:46:36.676Z,-0.99
2023-01-17T05:49:03.308Z,-0.98
2023-01-17T05:51:29.920Z,-1.02
2023-01-17T05:53:56.719Z,-0.99
2023-01-17T05:56:23.369Z,-0.97
2023-01-17T05:58:49.925Z,-0.98
2023-01-17T06:01:17.776Z,-0.95
2023-01-17T06:03:44.307Z,-0.79
2023-01-17T06:06:10.867Z,-0.73
2023-01-17T06:08:37.362Z,-0.73
2023-01-17T06:11:03.875Z,-0.79
2023-01-17T06:13:30.439Z,-0.88
2023-01-17T06:16:02.837Z,-0.87
2023-01-17T06:18:30.252Z,-0.86
2023-01-17T06:20:57.325Z,-0.79
2023-01-17T06:23:24.499Z,-0.79
2023-01-17T06:25:51.292Z,-0.86
2023-01-17T06:28:19.121Z,-0.86
2023-01-17T06:30:45.830Z,-0.94
2023-01-17T06:33:12.707Z,-0.96
2023-01-17T06:35:40.993Z,-0.95
2023-01-17T06:38:07.791Z,-0.91
2023-01-17T06:40:34.413Z,-0.85
2023-01-17T06:43:01.898Z,-0.87
2023-01-17T06:45:29.963Z,-0.86
2023-01-17T06:47:56.523Z,-0.88
2023-01-17T06:50:23.053Z,-0.89
2023-01-17T06:52:56.721Z,-0.89
2023-01-17T06:55:23.503Z,-0.85
2023-01-17T06:57:50.754Z,-0.79
2023-01-17T07:00:17.455Z,-0.81
2023-01-17T07:02:47.867Z,-0.79
2023-01-17T07:05:16.384Z,-0.73
2023-01-17T07:07:43.301Z,-0.69
2023-01-17T07:10:10.478Z,-0.65
2023-01-17T07:12:37.013Z,-0.64
2023-01-17T07:15:03.671Z,-0.61
2023-01-17T07:17:30.188Z,-0.57
2023-01-17T07:19:56.772Z,-0.49
2023-01-17T07:22:23.302Z,-0.40
2023-01-17T07:24:49.787Z,-0.42
2023-01-17T07:27:16.326Z,-0.38
2023-01-17T07:29:42.845Z,-0.48
2023-01-17T07:32:11.006Z,-0.53
2023-01-17T07:34:37.600Z,-0.43
2023-01-17T07:37:04.105Z,-0.43
2023-01-17T07:39:31.183Z,-0.46
2023-01-17T07:41:57.717Z,-0.37
2023-01-17T07:44:24.269Z,-0.25
2023-01-17T07:46:50.834Z,-0.36
2023-01-17T07:49:17.412Z,-0.33
2023-01-17T07:51:43.948Z,-0.36
2023-01-17T07:54:11.544Z,-0.38
2023-01-17T07:56:38.745Z,-0.37
2023-01-17T07:59:05.278Z,-0.40
2023-01-17T08:01:31.968Z,-0.40
2023-01-17T08:03:58.607Z,-0.39
2023-01-17T08:06:25.860Z,-0.39
2023-01-17T08:08:55.186Z,-0.41
2023-01-17T08:11:21.790Z,-0.41
2023-01-17T08:13:48.461Z,-0.39
2023-01-17T08:16:15.474Z,-0.38
2023-01-17T08:18:42.053Z,-0.33
2023-01-17T08:21:13.374Z,-0.31
2023-01-17T08:23:39.903Z,-0.28
2023-01-17T08:26:06.445Z,-0.27
2023-01-17T08:28:32.969Z,-0.22
2023-01-17T08:31:05.740Z,-0.19
2023-01-17T08:33:32.976Z,-0.12
2023-01-17T08:35:59.488Z,-0.05
2023-01-17T08:38:26.052Z,0.02
2023-01-17T08:40:52.565Z,0.04
2023-01-17T08:43:19.113Z,0.08
2023-01-17T08:45:46.125Z,0.14
2023-01-17T08:48:12.662Z,0.16
2023-01-17T08:50:39.167Z,0.19
2023-01-17T08:53:06.107Z,0.19
2023-01-17T08:55:33.618Z,0.16
2023-01-17T08:58:00.125Z,0.14
2023-01-17T09:00:28.858Z,0.13
2023-01-17T09:02:55.474Z,0.19
2023-01-17T09:05:22.383Z,0.21
2023-01-17T09:07:48.887Z,0.17
2023-01-17T09:10:15.528Z,0.24
2023-01-17T09:12:42.063Z,0.19
2023-01-17T09:15:08.712Z,0.18
2023-01-17T09:17:35.293Z,0.09
2023-01-17T09:20:01.860Z,0.14
2023-01-17T09:22:28.426Z,0.11
2023-01-17T09:24:55.028Z,0.08
2023-01-17T09:27:21.519Z,0.11
2023-01-17T09:29:48.060Z,0.12
2023-01-17T09:32:17.230Z,0.17
2023-01-17T09:34:44.446Z,0.20
2023-01-17T09:37:10.926Z,0.21
2023-01-17T09:39:37.447Z,0.12
2023-01-17T09:42:30.615Z,0.18
2023-01-17T09:44:57.594Z,0.16
2023-01-17T09:47:56.612Z,0.15
2023-01-17T09:50:27.237Z,0.17
2023-01-17T09:53:14.007Z,0.16
2023-01-17T09:55:43.554Z,0.20
2023-01-17T09:58:17.955Z,0.27
2023-01-17T10:00:44.482Z,0.35
2023-01-17T10:03:14.032Z,0.41
2023-01-17T10:05:40.626Z,0.40
2023-01-17T10:08:17.725Z,0.43
2023-01-17T10:11:16.377Z,0.45
2023-01-17T10:13:45.627Z,0.48
2023-01-17T10:16:27.541Z,0.53
2023-01-17T10:19:00.098Z,0.55
2023-01-17T10:21:34.114Z,0.53
2023-01-17T10:24:16.487Z,0.49
2023-01-17T10:26:48.623Z,0.49
2023-01-17T10:29:20.095Z,0.53
2023-01-17T10:31:59.479Z,0.47
2023-01-17T10:34:31.952Z,0.38
2023-01-17T10:37:18.732Z,0.38
2023-01-17T10:39:48.110Z,0.39
2023-01-17T10:42:26.919Z,0.37
2023-01-17T10:44:58.150Z,0.36
2023-01-17T10:47:25.023Z,0.34
2023-01-17T10:49:55.207Z,0.33
2023-01-17T10:52:24.569Z,0.36
2023-01-17T10:55:10.138Z,0.35
2023-01-17T10:57:41.655Z,0.36
2023-01-17T11:00:20.280Z,0.36
2023-01-17T11:02:49.654Z,0.36
2023-01-17T11:05:26.652Z,0.36
2023-01-17T11:08:00.626Z,0.36
2023-01-17T11:10:39.956Z,0.41
2023-01-17T11:13:25.090Z,0.39
2023-01-17T11:15:57.836Z,0.41
2023-01-17T11:18:28.719Z,0.41
2023-01-17T11:21:09.569Z,0.45
2023-01-17T11:23:36.250Z,0.46
2023-01-17T11:26:04.860Z,0.49
2023-01-17T11:28:38.799Z,0.51
2023-01-17T11:31:09.855Z,0.52
2023-01-17T11:33:45.295Z,0.55
2023-01-17T11:36:19.558Z,0.54
2023-01-17T11:39:05.067Z,0.56
2023-01-17T11:41:34.415Z,0.61
2023-01-17T11:44:01.429Z,0.59
2023-01-17T11:46:32.329Z,0.60
2023-01-17T11:49:00.138Z,0.57
2023-01-17T11:51:34.096Z,0.55
2023-01-17T11:54:08.315Z,0.56
2023-01-17T11:56:36.742Z,0.60
2023-01-17T11:59:10.033Z,0.69
2023-01-17T12:01:45.934Z,0.64
2023-01-17T12:04:18.630Z,0.58
2023-01-17T12:06:57.104Z,0.59
2023-01-17T12:09:24.327Z,0.71
2023-01-17T12:12:21.073Z,0.73
2023-01-17T12:14:56.400Z,0.67
2023-01-17T12:17:39.105Z,0.58
2023-01-17T12:20:12.818Z,0.54
2023-01-17T12:22:46.600Z,0.52
2023-01-17T12:25:48.691Z,0.49
2023-01-17T12:28:17.942Z,0.52
2023-01-17T12:30:59.613Z,0.55
2023-01-17T12:33:46.024Z,0.58
2023-01-17T12:36:21.740Z,0.55
2023-01-17T12:38:48.739Z,0.55
2023-01-17T12:41:18.375Z,0.52
2023-01-17T12:43:45.903Z,0.50
2023-01-17T12:46:20.976Z,0.50
2023-01-17T12:48:56.675Z,0.49
2023-01-17T12:51:31.429Z,0.47
2023-01-17T12:54:07.196Z,0.46
2023-01-17T12:56:35.677Z,0.47
2023-01-17T12:59:20.841Z,0.49
2023-01-17T13:01:57.690Z,0.57
2023-01-17T13:04:57.225Z,0.54
2023-01-17T13:07:29.275Z,0.50
2023-01-17T13:09:59.850Z,0.47
2023-01-17T13:12:29.232Z,0.41
2023-01-17T13:14:56.843Z,0.39
2023-01-17T13:17:32.678Z,0.34
2023-01-17T13:20:18.545Z,0.34
2023-01-17T13:22:46.018Z,0.40
2023-01-17T13:25:15.585Z,0.44
2023-01-17T13:27:50.881Z,0.46
2023-01-17T13:30:22.292Z,0.52
2023-01-17T13:33:15.544Z,0.50
2023-01-17T13:35:58.290Z,0.53
2023-01-17T13:38:27.656Z,0.52
2023-01-17T13:41:17.744Z,0.52
2023-01-17T13:44:05.578Z,0.53
2023-01-17T13:46:51.962Z,0.53
2023-01-17T13:49:33.946Z,0.55
2023-01-17T13:52:12.272Z,0.53
2023-01-17T13:54:52.624Z,0.53
2023-01-17T13:57:40.091Z,0.53
2023-01-17T14:00:22.129Z,0.54
2023-01-17T14:02:49.529Z,0.54
2023-01-17T14:05:42.222Z,0.53
2023-01-17T14:08:17.863Z,0.52
2023-01-17T14:10:46.980Z,0.54
2023-01-17T14:13:34.153Z,0.54
2023-01-17T14:16:01.196Z,0.55
2023-01-17T14:18:48.159Z,0.57
2023-01-17T14:21:35.690Z,0.59
2023-01-17T14:24:15.053Z,0.61
2023-01-17T14:27:10.958Z,0.62
2023-01-17T14:29:44.384Z,0.64
2023-01-17T14:32:15.723Z,0.64
2023-01-17T14:34:43.714Z,0.72
2023-01-17T14:37:17.044Z,0.67
2023-01-17T14:39:45.128Z,0.61
2023-01-17T14:42:14.113Z,0.59
2023-01-17T14:44:40.686Z,0.57
2023-01-17T14:47:11.255Z,0.56
2023-01-17T14:49:37.890Z,0.61
2023-01-17T14:52:06.366Z,0.58
2023-01-17T14:54:33.430Z,0.58
2023-01-17T14:57:35.307Z,0.57
2023-01-17T15:00:20.128Z,0.64
2023-01-17T15:02:47.734Z,0.61
2023-01-17T15:05:18.903Z,0.58
2023-01-17T15:07:46.998Z,0.56
2023-01-17T15:10:15.183Z,0.55
2023-01-17T15:12:46.667Z,0.58
2023-01-17T15:15:29.963Z,0.55
2023-01-17T15:18:08.632Z,0.53
2023-01-17T15:20:35.947Z,0.56
2023-01-17T15:23:03.062Z,0.54
2023-01-17T15:25:30.394Z,0.56
2023-01-17T15:27:57.107Z,0.54
2023-01-17T15:30:25.383Z,0.55
2023-01-17T15:32:52.721Z,0.58
2023-01-17T15:35:20.125Z,0.55
2023-01-17T15:37:51.977Z,0.54
2023-01-17T15:40:21.040Z,0.51
2023-01-17T15:42:49.041Z,0.52
2023-01-17T15:45:17.275Z,0.54
2023-01-17T15:47:43.827Z,0.51
2023-01-17T15:50:27.733Z,0.53
2023-01-17T15:52:55.799Z,0.59
2023-01-17T15:55:23.882Z,0.63
2023-01-17T15:57:50.458Z,0.56
2023-01-17T16:00:19.233Z,0.55
2023-01-17T16:02:55.140Z,0.56
2023-01-17T16:05:22.063Z,0.53
2023-01-17T16:07:49.734Z,0.48
2023-01-17T16:10:16.273Z,0.47
2023-01-17T16:12:42.921Z,0.46
2023-01-17T16:15:13.542Z,0.44
2023-01-17T16:17:42.413Z,0.44
2023-01-17T16:20:15.856Z,0.46
2023-01-17T16:22:43.991Z,0.44
2023-01-17T16:25:14.927Z,0.42
2023-01-17T16:27:43.236Z,0.40
2023-01-17T16:30:11.104Z,0.38
2023-01-17T16:32:37.719Z,0.34
2023-01-17T16:35:06.360Z,0.26
2023-01-17T16:37:32.900Z,0.24
2023-01-17T16:39:59.414Z,0.26
2023-01-17T16:42:27.806Z,0.26
2023-01-17T16:44:55.118Z,0.26
2023-01-17T16:47:22.723Z,0.21
2023-01-17T16:49:49.246Z,0.19
2023-01-17T16:52:15.779Z,0.16
2023-01-17T16:54:42.331Z,0.14
2023-01-17T16:57:08.882Z,0.14
2023-01-17T16:59:49.808Z,0.15
2023-01-17T17:02:16.667Z,0.15
2023-01-17T17:04:43.260Z,0.15
2023-01-17T17:07:09.821Z,0.13
2023-01-17T17:09:36.406Z,0.08
2023-01-17T17:12:05.097Z,0.02
2023-01-17T17:14:31.689Z,-0.03
2023-01-17T17:17:00.023Z,-0.02
2023-01-17T17:19:27.398Z,-0.01
2023-01-17T17:21:53.924Z,0.04
2023-01-17T17:24:20.937Z,0.04
2023-01-17T17:26:47.483Z,0.06
2023-01-17T17:29:14.083Z,0.05
2023-01-17T17:31:41.419Z,0.03
2023-01-17T17:34:10.171Z,-0.03
2023-01-17T17:36:37.060Z,-0.09
2023-01-17T17:39:05.999Z,-0.06
2023-01-17T17:41:34.714Z,-0.04
2023-01-17T17:44:01.969Z,-0.04
2023-01-17T17:46:29.287Z,-0.01
2023-01-17T17:48:56.636Z,0.01
2023-01-17T17:51:30.717Z,-0.02
2023-01-17T17:54:02.011Z,-0.03
2023-01-17T17:56:29.557Z,-0.03
2023-01-17T17:58:56.971Z,-0.01
2023-01-17T18:01:24.207Z,-0.03
2023-01-17T18:03:51.430Z,-0.07
2023-01-17T18:06:17.985Z,-0.10
2023-01-17T18:08:44.835Z,-0.11
2023-01-17T18:11:14.902Z,-0.11
2023-01-17T18:13:42.841Z,-0.09
2023-01-17T18:16:11.262Z,-0.08
2023-01-17T18:18:40.409Z,-0.05
2023-01-17T18:21:12.391Z,-0.03
2023-01-17T18:23:39.893Z,-0.02
2023-01-17T18:26:07.139Z,-0.03
2023-01-17T18:28:33.695Z,-0.09
2023-01-17T18:31:04.911Z,-0.09
2023-01-17T18:33:31.420Z,-0.07
2023-01-17T18:36:00.123Z,-0.03
2023-01-17T18:38:38.118Z,-0.02
2023-01-17T18:41:09.153Z,-0.02
2023-01-17T18:43:36.059Z,-0.05
2023-01-17T18:46:02.918Z,-0.10
2023-01-17T18:48:29.429Z,-0.11
2023-01-17T18:51:00.053Z,-0.11
2023-01-17T18:53:26.711Z,-0.11
2023-01-17T18:55:57.336Z,-0.09
2023-01-17T18:58:24.386Z,-0.09
2023-01-17T19:00:51.591Z,-0.05
2023-01-17T19:03:19.916Z,-0.02
2023-01-17T19:05:47.244Z,0.02
2023-01-17T19:08:14.727Z,0.02
2023-01-17T19:10:41.268Z,0.02
2023-01-17T19:13:07.909Z,-0.03
2023-01-17T19:15:36.250Z,-0.11
2023-01-17T19:18:03.854Z,-0.13
2023-01-17T19:20:30.787Z,-0.14
2023-01-17T19:22:57.640Z,-0.14
2023-01-17T19:25:25.683Z,-0.10
2023-01-17T19:27:52.933Z,-0.07
2023-01-17T19:30:20.378Z,-0.10
2023-01-17T19:32:49.366Z,-0.08
2023-01-17T19:35:16.142Z,-0.09
2023-01-17T19:37:46.734Z,-0.07
2023-01-17T19:40:14.657Z,-0.07
2023-01-17T19:42:41.251Z,-0.12
2023-01-17T19:45:08.660Z,-0.13
2023-01-17T19:47:35.355Z,-0.12
2023-01-17T19:50:02.128Z,-0.08
2023-01-17T19:52:29.827Z,-0.05
2023-01-17T19:54:56.616Z,-0.05
2023-01-17T19:57:24.367Z,-0.07
2023-01-17T19:59:51.043Z,-0.11
2023-01-17T20:02:17.703Z,-0.12
2023-01-17T20:04:44.521Z,-0.12
2023-01-17T20:07:11.035Z,-0.07
2023-01-17T20:09:37.967Z,-0.05
2023-01-17T20:12:04.636Z,-0.05
2023-01-17T20:14:31.174Z,-0.07
2023-01-17T20:16:57.712Z,-0.08
2023-01-17T20:19:24.322Z,-0.04
2023-01-17T20:21:50.831Z,-0.07
2023-01-17T20:24:17.459Z,-0.08
2023-01-17T20:26:44.190Z,-0.10
2023-01-17T20:29:12.537Z,-0.07
2023-01-17T20:31:39.886Z,-0.07
2023-01-17T20:34:07.057Z,-0.06
2023-01-17T20:36:33.685Z,-0.05
2023-01-17T20:39:02.708Z,-0.04
2023-01-17T20:41:30.333Z,-0.02
2023-01-17T20:43:58.344Z,-0.05
2023-01-17T20:46:25.780Z,-0.05
2023-01-17T20:48:53.502Z,-0.04
2023-01-17T20:51:21.378Z,-0.07
2023-01-17T20:53:51.583Z,-0.09
2023-01-17T20:56:18.966Z,-0.23
2023-01-17T20:58:45.655Z,-0.23
2023-01-17T21:01:13.239Z,-0.20
2023-01-17T21:03:40.038Z,-0.14
2023-01-17T21:06:08.187Z,-0.13
2023-01-17T21:08:36.204Z,-0.17
2023-01-17T21:11:02.864Z,-0.18
2023-01-17T21:13:29.425Z,-0.18
2023-01-17T21:15:55.982Z,-0.14
2023-01-17T21:18:23.386Z,-0.13
2023-01-17T21:20:50.093Z,-0.11
2023-01-17T21:23:20.232Z,-0.07
2023-01-17T21:25:49.500Z,-0.19
2023-01-17T21:28:16.042Z,-0.16
2023-01-17T21:30:42.568Z,-0.19
2023-01-17T21:33:09.131Z,-0.21
2023-01-17T21:35:35.658Z,-0.17
2023-01-17T21:38:02.163Z,-0.13
2023-01-17T21:40:28.669Z,-0.14
2023-01-17T21:42:55.179Z,-0.15
2023-01-17T21:45:21.667Z,-0.18
2023-01-17T21:47:50.012Z,-0.21
2023-01-17T21:50:32.061Z,-0.22
2023-01-17T21:52:59.483Z,-0.19
2023-01-17T21:55:44.736Z,-0.21
2023-01-17T21:58:33.295Z,-0.21
2023-01-17T22:01:08.901Z,-0.22
2023-01-17T22:03:36.082Z,-0.21
2023-01-17T22:06:04.277Z,-0.18
2023-01-17T22:08:31.611Z,-0.20
2023-01-17T22:11:02.319Z,-0.22
2023-01-17T22:13:30.548Z,-0.17
2023-01-17T22:15:58.572Z,-0.11
2023-01-17T22:18:25.205Z,-0.12
2023-01-17T22:20:51.731Z,-0.11
2023-01-17T22:23:18.284Z,-0.08
2023-01-17T22:25:45.397Z,-0.11
2023-01-17T22:28:12.088Z,-0.17
2023-01-17T22:30:38.660Z,-0.18
2023-01-17T22:33:05.246Z,-0.18
2023-01-17T22:35:31.803Z,-0.23
2023-01-17T22:37:58.783Z,-0.24
2023-01-17T22:40:26.216Z,-0.18
2023-01-17T22:42:52.769Z,-0.13
2023-01-17T22:45:20.120Z,-0.14
2023-01-17T22:47:46.681Z,-0.15
2023-01-17T22:50:13.365Z,-0.20
2023-01-17T22:52:39.963Z,-0.20
2023-01-17T22:55:06.695Z,-0.22
2023-01-17T22:57:33.389Z,-0.24
2023-01-17T23:00:00.113Z,-0.22
2023-01-17T23:02:26.677Z,-0.21
2023-01-17T23:04:53.316Z,-0.19
2023-01-17T23:07:19.833Z,-0.17
2023-01-17T23:09:46.366Z,-0.15
2023-01-17T23:12:12.967Z,-0.14
2023-01-17T23:14:58.114Z,-0.11
2023-01-17T23:17:43.152Z,-0.11
2023-01-17T23:20:11.233Z,-0.11
2023-01-17T23:22:37.914Z,-0.12
2023-01-17T23:25:06.061Z,-0.11
2023-01-17T23:27:51.332Z,-0.10
2023-01-17T23:30:25.154Z,-0.05
2023-01-17T23:32:53.169Z,-0.07
2023-01-17T23:35:21.090Z,-0.09
2023-01-17T23:38:06.770Z,-0.17
2023-01-17T23:40:35.006Z,-0.20
2023-01-17T23:43:20.152Z,-0.17
2023-01-17T23:45:46.730Z,-0.20
2023-01-17T23:48:13.627Z,-0.18
2023-01-17T23:50:44.284Z,-0.15
2023-01-17T23:53:12.045Z,-0.12
2023-01-17T23:55:39.685Z,-0.10
2023-01-17T23:58:07.133Z,-0.05
